createdAt,value
2023-10-18T00:00:55.669Z,5.39
2023-10-18T00:01:55.616Z,5.21
2023-10-18T00:02:55.968Z,5.14
2023-10-18T00:03:55.640Z,5.11
2023-10-18T00:04:55.539Z,5.18
2023-10-18T00:05:55.529Z,5.22
2023-10-18T00:06:55.638Z,5.18
2023-10-18T00:07:55.525Z,5.21
2023-10-18T00:08:55.518Z,5.31
2023-10-18T00:09:55.566Z,5.26
2023-10-18T00:10:55.486Z,5.26
2023-10-18T00:11:55.467Z,5.23
2023-10-18T00:12:55.480Z,5.36
2023-10-18T00:13:55.449Z,5.31
2023-10-18T00:14:55.439Z,5.36
2023-10-18T00:15:55.477Z,5.36
2023-10-18T00:16:55.410Z,5.37
2023-10-18T00:17:55.459Z,5.37
2023-10-18T00:18:55.511Z,5.21
2023-10-18T00:19:55.381Z,5.37
2023-10-18T00:20:55.377Z,5.29
2023-10-18T00:21:55.385Z,5.25
2023-10-18T00:22:55.763Z,5.32
2023-10-18T00:23:55.343Z,5.31
2023-10-18T00:24:55.373Z,5.19
2023-10-18T00:25:55.323Z,5.34
2023-10-18T00:26:55.319Z,5.23
2023-10-18T00:27:55.324Z,5.28
2023-10-18T00:28:55.288Z,5.31
2023-10-18T00:29:55.277Z,5.32
2023-10-18T00:30:55.389Z,5.36
2023-10-18T00:31:55.357Z,5.10
2023-10-18T00:32:55.266Z,5.25
2023-10-18T00:33:55.382Z,5.46
2023-10-18T00:34:55.226Z,5.36
2023-10-18T00:35:55.222Z,5.37
2023-10-18T00:36:55.245Z,5.37
2023-10-18T00:37:55.199Z,5.39
2023-10-18T00:38:55.212Z,5.31
2023-10-18T00:39:55.205Z,5.16
2023-10-18T00:40:55.209Z,5.28
2023-10-18T00:41:55.170Z,5.46
2023-10-18T00:42:55.216Z,5.36
2023-10-18T00:43:55.184Z,5.31
2023-10-18T00:44:55.125Z,5.39
2023-10-18T00:45:55.163Z,5.18
2023-10-18T00:46:55.171Z,5.25
2023-10-18T00:47:55.132Z,5.23
2023-10-18T00:48:55.111Z,5.28
2023-10-18T00:49:55.076Z,5.28
2023-10-18T00:50:55.061Z,5.28
2023-10-18T00:51:55.085Z,5.11
2023-10-18T00:52:55.045Z,5.07
2023-10-18T00:53:55.033Z,5.18
2023-10-18T00:54:55.115Z,5.18
2023-10-18T00:55:55.012Z,5.11
2023-10-18T00:56:55.005Z,5.13
2023-10-18T00:57:55.026Z,5.08
2023-10-18T00:58:54.987Z,5.16
2023-10-18T00:59:54.974Z,5.13
2023-10-18T01:00:54.996Z,5.14
2023-10-18T01:01:55.028Z,5.14
2023-10-18T01:02:55.062Z,5.25
2023-10-18T01:03:54.999Z,5.13
2023-10-18T01:04:54.920Z,5.13
2023-10-18T01:05:54.910Z,5.22
2023-10-18T01:06:55.003Z,5.07
2023-10-18T01:07:55.109Z,5.14
2023-10-18T01:08:54.885Z,4.98
2023-10-18T01:09:54.906Z,5.05
2023-10-18T01:10:54.878Z,5.23
2023-10-18T01:11:54.872Z,5.08
2023-10-18T01:12:54.896Z,5.04
2023-10-18T01:13:54.836Z,4.95
2023-10-18T01:14:54.821Z,4.95
2023-10-18T01:15:54.815Z,5.04
2023-10-18T01:16:54.852Z,4.95
2023-10-18T01:17:54.889Z,4.90
2023-10-18T01:18:54.848Z,4.92
2023-10-18T01:19:54.768Z,4.92
2023-10-18T01:20:54.759Z,5.16
2023-10-18T01:21:54.782Z,5.08
2023-10-18T01:22:54.736Z,4.85
2023-10-18T01:23:54.784Z,5.03
2023-10-18T01:24:54.757Z,4.86
2023-10-18T01:25:54.718Z,4.85
2023-10-18T01:26:54.736Z,4.92
2023-10-18T01:27:54.740Z,4.79
2023-10-18T01:28:54.707Z,4.93
2023-10-18T01:29:54.673Z,4.82
2023-10-18T01:30:54.728Z,4.85
2023-10-18T01:31:54.727Z,4.85
2023-10-18T01:32:54.669Z,4.86
2023-10-18T01:33:54.666Z,4.83
2023-10-18T01:34:54.624Z,4.68
2023-10-18T01:35:54.609Z,4.96
2023-10-18T01:36:54.625Z,5.04
2023-10-18T01:37:54.598Z,4.89
2023-10-18T01:38:54.596Z,4.80
2023-10-18T01:39:54.661Z,4.86
2023-10-18T01:40:54.555Z,4.87
2023-10-18T01:41:54.759Z,4.75
2023-10-18T01:42:54.696Z,4.86
2023-10-18T01:43:54.566Z,4.85
2023-10-18T01:44:54.512Z,4.87
2023-10-18T01:45:54.563Z,4.85
2023-10-18T01:46:54.576Z,4.83
2023-10-18T01:47:54.810Z,4.79
2023-10-18T01:48:54.514Z,4.95
2023-10-18T01:49:54.500Z,4.74
2023-10-18T01:50:54.465Z,4.86
2023-10-18T01:51:54.473Z,4.79
2023-10-18T01:52:54.433Z,4.95
2023-10-18T01:53:54.418Z,4.87
2023-10-18T01:54:54.458Z,4.82
2023-10-18T01:55:54.401Z,4.89
2023-10-18T01:56:54.403Z,4.86
2023-10-18T01:57:54.407Z,4.82
2023-10-18T01:58:54.389Z,4.67
2023-10-18T01:59:54.364Z,4.77
2023-10-18T02:00:54.365Z,4.80
2023-10-18T02:01:54.433Z,4.74
2023-10-18T02:02:54.434Z,4.79
2023-10-18T02:03:54.480Z,4.80
2023-10-18T02:04:54.711Z,4.86
2023-10-18T02:05:54.316Z,4.69
2023-10-18T02:06:54.345Z,4.72
2023-10-18T02:07:54.275Z,4.82
2023-10-18T02:08:54.270Z,4.79
2023-10-18T02:09:54.558Z,4.80
2023-10-18T02:10:54.250Z,4.72
2023-10-18T02:11:54.245Z,4.75
2023-10-18T02:12:54.324Z,4.75
2023-10-18T02:13:54.227Z,4.77
2023-10-18T02:14:54.229Z,4.72
2023-10-18T02:15:54.226Z,4.77
2023-10-18T02:16:54.253Z,4.64
2023-10-18T02:17:54.220Z,4.65
2023-10-18T02:18:54.279Z,4.74
2023-10-18T02:19:54.160Z,4.72
2023-10-18T02:20:54.141Z,4.67
2023-10-18T02:21:54.168Z,4.68
2023-10-18T02:22:54.122Z,4.59
2023-10-18T02:23:54.124Z,4.56
2023-10-18T02:24:54.128Z,4.51
2023-10-18T02:25:54.139Z,4.54
2023-10-18T02:26:54.083Z,4.50
2023-10-18T02:27:54.124Z,4.65
2023-10-18T02:28:54.060Z,4.56
2023-10-18T02:29:54.091Z,4.54
2023-10-18T02:30:54.085Z,4.67
2023-10-18T02:31:54.083Z,4.53
2023-10-18T02:32:54.053Z,4.65
2023-10-18T02:33:54.058Z,4.64
2023-10-18T02:34:54.118Z,4.59
2023-10-18T02:35:53.991Z,4.51
2023-10-18T02:36:54.006Z,4.61
2023-10-18T02:37:53.979Z,4.64
2023-10-18T02:38:54.013Z,4.67
2023-10-18T02:40:04.563Z,4.83
2023-10-18T02:40:54.973Z,4.54
2023-10-18T02:41:53.931Z,4.44
2023-10-18T02:42:53.960Z,4.53
2023-10-18T02:43:53.944Z,4.47
2023-10-18T02:44:53.900Z,4.42
2023-10-18T02:45:53.939Z,4.43
2023-10-18T02:46:53.989Z,4.56
2023-10-18T02:47:53.883Z,4.50
2023-10-18T02:48:53.959Z,4.57
2023-10-18T02:49:53.840Z,4.51
2023-10-18T02:50:53.831Z,4.61
2023-10-18T02:51:53.847Z,4.36
2023-10-18T02:52:53.813Z,4.39
2023-10-18T02:53:53.801Z,4.50
2023-10-18T02:54:53.799Z,4.31
2023-10-18T02:55:53.774Z,4.59
2023-10-18T02:56:53.766Z,4.39
2023-10-18T02:57:53.874Z,4.38
2023-10-18T02:58:53.800Z,4.35
2023-10-18T02:59:53.735Z,4.39
2023-10-18T03:00:53.758Z,4.44
2023-10-18T03:01:53.753Z,4.43
2023-10-18T03:02:53.734Z,4.51
2023-10-18T03:03:53.737Z,4.51
2023-10-18T03:04:53.799Z,4.47
2023-10-18T03:05:53.677Z,4.59
2023-10-18T03:06:53.681Z,4.51
2023-10-18T03:07:53.648Z,4.47
2023-10-18T03:08:53.641Z,4.57
2023-10-18T03:09:53.643Z,4.46
2023-10-18T03:10:53.617Z,4.43
2023-10-18T03:11:53.604Z,4.42
2023-10-18T03:12:53.672Z,4.38
2023-10-18T03:13:53.598Z,4.46
2023-10-18T03:14:53.574Z,4.59
2023-10-18T03:16:01.576Z,4.46
2023-10-18T03:16:54.684Z,4.51
2023-10-18T03:17:53.551Z,4.46
2023-10-18T03:18:53.596Z,4.53
2023-10-18T03:19:53.522Z,4.47
2023-10-18T03:20:53.516Z,4.57
2023-10-18T03:21:53.548Z,4.50
2023-10-18T03:22:53.514Z,4.42
2023-10-18T03:23:53.492Z,4.49
2023-10-18T03:24:53.500Z,4.47
2023-10-18T03:25:53.466Z,4.46
2023-10-18T03:26:53.456Z,4.44
2023-10-18T03:27:53.473Z,4.36
2023-10-18T03:28:53.437Z,4.26
2023-10-18T03:29:55.306Z,4.44
2023-10-18T03:30:53.438Z,4.38
2023-10-18T03:31:53.417Z,4.64
2023-10-18T03:32:53.446Z,4.71
2023-10-18T03:33:53.393Z,4.53
2023-10-18T03:34:53.416Z,4.69
2023-10-18T03:35:53.363Z,4.64
2023-10-18T03:36:53.642Z,4.51
2023-10-18T03:37:53.343Z,4.46
2023-10-18T03:38:53.339Z,4.54
2023-10-18T03:39:53.336Z,4.50
2023-10-18T03:40:53.311Z,4.50
2023-10-18T03:41:53.302Z,4.49
2023-10-18T03:42:53.309Z,4.20
2023-10-18T03:43:53.281Z,4.49
2023-10-18T03:44:53.275Z,4.44
2023-10-18T03:45:53.368Z,4.39
2023-10-18T03:46:53.469Z,4.47
2023-10-18T03:47:53.274Z,4.50
2023-10-18T03:48:53.262Z,4.54
2023-10-18T03:49:53.222Z,4.49
2023-10-18T03:50:54.709Z,4.42
2023-10-18T03:51:53.262Z,4.47
2023-10-18T03:52:53.198Z,4.43
2023-10-18T03:53:53.178Z,4.47
2023-10-18T03:54:53.173Z,4.35
2023-10-18T03:55:53.157Z,4.31
2023-10-18T03:56:53.144Z,4.42
2023-10-18T03:57:53.222Z,4.36
2023-10-18T03:58:53.123Z,4.36
2023-10-18T03:59:53.114Z,4.28
2023-10-18T04:00:53.228Z,4.29
2023-10-18T04:01:53.095Z,4.44
2023-10-18T04:02:53.128Z,4.46
2023-10-18T04:03:53.237Z,4.34
2023-10-18T04:04:53.101Z,4.24
2023-10-18T04:05:53.045Z,4.31
2023-10-18T04:06:53.137Z,4.35
2023-10-18T04:07:53.080Z,4.44
2023-10-18T04:08:53.015Z,4.46
2023-10-18T04:09:53.028Z,4.24
2023-10-18T04:10:53.006Z,4.34
2023-10-18T04:11:52.984Z,4.44
2023-10-18T04:12:52.979Z,4.42
2023-10-18T04:13:52.972Z,4.39
2023-10-18T04:14:52.952Z,4.32
2023-10-18T04:15:52.959Z,4.36
2023-10-18T04:16:52.944Z,4.32
2023-10-18T04:17:52.941Z,4.35
2023-10-18T04:18:52.999Z,4.36
2023-10-18T04:19:52.940Z,4.39
2023-10-18T04:20:52.889Z,4.42
2023-10-18T04:21:52.954Z,4.39
2023-10-18T04:22:52.906Z,4.50
2023-10-18T04:23:52.858Z,4.43
2023-10-18T04:24:52.881Z,4.56
2023-10-18T04:25:52.837Z,4.38
2023-10-18T04:26:52.826Z,4.29
2023-10-18T04:27:52.864Z,4.39
2023-10-18T04:28:52.807Z,4.25
2023-10-18T04:29:52.794Z,4.31
2023-10-18T04:30:52.805Z,4.39
2023-10-18T04:31:52.825Z,4.31
2023-10-18T04:32:52.811Z,4.24
2023-10-18T04:33:52.839Z,4.26
2023-10-18T04:34:52.768Z,4.32
2023-10-18T04:35:52.760Z,4.24
2023-10-18T04:36:52.808Z,4.25
2023-10-18T04:37:52.727Z,4.25
2023-10-18T04:38:53.003Z,4.31
2023-10-18T04:39:52.740Z,4.14
2023-10-18T04:40:52.754Z,4.24
2023-10-18T04:41:52.738Z,4.14
2023-10-18T04:42:54.297Z,4.21
2023-10-18T04:43:52.652Z,4.13
2023-10-18T04:44:52.642Z,4.21
2023-10-18T04:45:52.747Z,4.20
2023-10-18T04:46:52.701Z,4.10
2023-10-18T04:47:52.652Z,4.26
2023-10-18T04:48:52.657Z,4.32
2023-10-18T04:49:52.588Z,4.26
2023-10-18T04:50:52.583Z,4.25
2023-10-18T04:51:52.580Z,4.21
2023-10-18T04:52:52.557Z,4.20
2023-10-18T04:53:52.547Z,4.14
2023-10-18T04:54:52.602Z,4.11
2023-10-18T04:55:52.537Z,4.18
2023-10-18T04:56:52.519Z,4.26
2023-10-18T04:57:52.556Z,4.31
2023-10-18T04:58:52.494Z,4.16
2023-10-18T04:59:52.482Z,4.31
2023-10-18T05:00:52.516Z,4.13
2023-10-18T05:01:52.569Z,4.25
2023-10-18T05:02:52.663Z,4.24
2023-10-18T05:03:52.487Z,4.28
2023-10-18T05:04:52.436Z,4.21
2023-10-18T05:05:52.421Z,4.11
2023-10-18T05:06:52.439Z,4.17
2023-10-18T05:07:52.401Z,4.18
2023-10-18T05:08:52.419Z,4.17
2023-10-18T05:09:52.422Z,4.24
2023-10-18T05:10:52.391Z,4.42
2023-10-18T05:11:52.360Z,4.20
2023-10-18T05:12:52.379Z,4.25
2023-10-18T05:13:52.342Z,4.36
2023-10-18T05:14:54.024Z,4.05
2023-10-18T05:15:52.425Z,4.38
2023-10-18T05:16:52.440Z,4.34
2023-10-18T05:17:52.339Z,4.31
2023-10-18T05:18:52.315Z,4.43
2023-10-18T05:19:52.296Z,4.44
2023-10-18T05:20:53.747Z,4.54
2023-10-18T05:21:52.269Z,4.35
2023-10-18T05:22:52.250Z,4.38
2023-10-18T05:23:52.235Z,4.43
2023-10-18T05:24:52.231Z,4.46
2023-10-18T05:25:52.213Z,4.28
2023-10-18T05:26:52.227Z,4.29
2023-10-18T05:27:52.208Z,4.25
2023-10-18T05:28:52.190Z,4.11
2023-10-18T05:29:52.175Z,4.32
2023-10-18T05:30:52.205Z,4.29
2023-10-18T05:31:52.190Z,4.35
2023-10-18T05:32:52.244Z,4.34
2023-10-18T05:33:52.168Z,4.35
2023-10-18T05:35:06.419Z,4.24
2023-10-18T05:35:53.145Z,4.47
2023-10-18T05:36:52.155Z,4.43
2023-10-18T05:37:52.095Z,4.34
2023-10-18T05:38:52.103Z,4.29
2023-10-18T05:39:52.095Z,4.43
2023-10-18T05:40:52.063Z,4.36
2023-10-18T05:41:52.056Z,4.46
2023-10-18T05:42:52.070Z,4.51
2023-10-18T05:43:52.063Z,4.38
2023-10-18T05:44:52.024Z,4.25
2023-10-18T05:45:52.139Z,4.34
2023-10-18T05:46:52.324Z,4.43
2023-10-18T05:47:52.024Z,4.29
2023-10-18T05:48:51.998Z,4.36
2023-10-18T05:49:51.980Z,4.29
2023-10-18T05:50:51.961Z,4.34
2023-10-18T05:51:52.020Z,4.44
2023-10-18T05:52:51.940Z,4.50
2023-10-18T05:53:51.927Z,4.29
2023-10-18T05:54:51.961Z,4.54
2023-10-18T05:55:51.909Z,4.24
2023-10-18T05:56:51.903Z,4.50
2023-10-18T05:57:51.914Z,4.56
2023-10-18T05:58:51.897Z,4.50
2023-10-18T05:59:51.873Z,4.49
2023-10-18T06:00:51.951Z,4.54
2023-10-18T06:01:51.950Z,4.44
2023-10-18T06:02:51.894Z,4.64
2023-10-18T06:03:51.896Z,4.38
2023-10-18T06:04:51.875Z,4.39
2023-10-18T06:05:51.810Z,4.50
2023-10-18T06:06:51.815Z,4.64
2023-10-18T06:07:51.786Z,4.53
2023-10-18T06:08:51.776Z,4.38
2023-10-18T06:09:51.787Z,4.49
2023-10-18T06:10:51.754Z,4.46
2023-10-18T06:11:51.746Z,4.56
2023-10-18T06:12:51.755Z,4.51
2023-10-18T06:13:51.724Z,4.39
2023-10-18T06:14:51.735Z,4.42
2023-10-18T06:15:51.848Z,4.65
2023-10-18T06:16:51.787Z,4.46
2023-10-18T06:17:51.786Z,4.46
2023-10-18T06:18:51.743Z,4.57
2023-10-18T06:19:51.661Z,4.62
2023-10-18T06:20:51.651Z,4.67
2023-10-18T06:21:51.673Z,4.69
2023-10-18T06:22:51.640Z,4.74
2023-10-18T06:23:51.626Z,4.65
2023-10-18T06:24:51.636Z,4.72
2023-10-18T06:25:51.602Z,4.72
2023-10-18T06:26:51.592Z,4.68
2023-10-18T06:27:51.623Z,4.69
2023-10-18T06:28:51.571Z,4.77
2023-10-18T06:29:51.567Z,4.74
2023-10-18T06:30:51.629Z,4.72
2023-10-18T06:31:51.635Z,4.83
2023-10-18T06:32:51.553Z,4.82
2023-10-18T06:33:51.563Z,4.93
2023-10-18T06:34:51.514Z,5.00
2023-10-18T06:35:51.507Z,5.01
2023-10-18T06:36:51.531Z,4.98
2023-10-18T06:37:51.483Z,4.93
2023-10-18T06:38:51.473Z,5.01
2023-10-18T06:39:51.478Z,5.08
2023-10-18T06:41:04.410Z,5.01
2023-10-18T06:41:52.474Z,5.11
2023-10-18T06:42:51.533Z,5.04
2023-10-18T06:43:51.419Z,5.10
2023-10-18T06:44:51.411Z,5.10
2023-10-18T06:45:51.479Z,5.29
2023-10-18T06:46:51.470Z,5.14
2023-10-18T06:47:51.388Z,5.11
2023-10-18T06:49:07.587Z,5.40
2023-10-18T06:49:56.103Z,5.28
2023-10-18T06:50:52.382Z,5.22
2023-10-18T06:51:51.483Z,5.37
2023-10-18T06:52:51.483Z,5.05
2023-10-18T06:53:51.318Z,5.22
2023-10-18T06:54:51.311Z,5.36
2023-10-18T06:55:51.297Z,5.39
2023-10-18T06:56:51.282Z,5.44
2023-10-18T06:57:51.316Z,5.43
2023-10-18T06:58:51.264Z,5.48
2023-10-18T06:59:51.920Z,5.44
2023-10-18T07:00:51.299Z,5.44
2023-10-18T07:01:51.364Z,5.62
2023-10-18T07:02:51.280Z,5.65
2023-10-18T07:03:51.324Z,5.81
2023-10-18T07:04:51.196Z,5.59
2023-10-18T07:05:51.197Z,5.63
2023-10-18T07:06:51.196Z,5.75
2023-10-18T07:07:51.168Z,5.70
2023-10-18T07:08:51.649Z,5.60
2023-10-18T07:09:51.169Z,5.77
2023-10-18T07:11:00.878Z,5.67
2023-10-18T07:11:52.726Z,5.74
2023-10-18T07:12:51.145Z,5.96
2023-10-18T07:13:51.116Z,5.99
2023-10-18T07:14:51.594Z,6.01
2023-10-18T07:15:51.135Z,5.87
2023-10-18T07:16:51.157Z,5.95
2023-10-18T07:17:51.076Z,6.14
2023-10-18T07:18:51.119Z,5.98
2023-10-18T07:19:51.058Z,6.01
2023-10-18T07:20:51.029Z,6.03
2023-10-18T07:21:51.065Z,6.05
2023-10-18T07:22:51.003Z,6.14
2023-10-18T07:23:50.997Z,6.21
2023-10-18T07:24:51.020Z,6.08
2023-10-18T07:26:05.843Z,6.13
2023-10-18T07:26:51.993Z,6.35
2023-10-18T07:27:51.024Z,6.38
2023-10-18T07:28:51.024Z,6.34
2023-10-18T07:29:50.943Z,6.39
2023-10-18T07:30:50.956Z,6.35
2023-10-18T07:31:50.980Z,6.38
2023-10-18T07:32:50.934Z,6.59
2023-10-18T07:33:50.918Z,6.35
2023-10-18T07:34:50.897Z,6.57
2023-10-18T07:35:50.871Z,6.74
2023-10-18T07:36:50.886Z,6.57
2023-10-18T07:37:50.847Z,6.71
2023-10-18T07:38:50.837Z,6.64
2023-10-18T07:39:51.009Z,6.85
2023-10-18T07:40:50.817Z,6.88
2023-10-18T07:41:50.806Z,6.90
2023-10-18T07:42:50.813Z,6.86
2023-10-18T07:43:50.783Z,6.85
2023-10-18T07:44:50.773Z,6.96
2023-10-18T07:45:50.782Z,6.96
2023-10-18T07:46:50.754Z,7.07
2023-10-18T07:47:50.751Z,7.16
2023-10-18T07:48:50.824Z,7.00
2023-10-18T07:49:50.749Z,7.23
2023-10-18T07:50:50.728Z,6.94
2023-10-18T07:51:51.253Z,7.16
2023-10-18T07:52:50.684Z,7.15
2023-10-18T07:53:50.695Z,7.26
2023-10-18T07:54:50.711Z,7.21
2023-10-18T07:55:50.674Z,7.27
2023-10-18T07:56:50.668Z,7.41
2023-10-18T07:57:50.670Z,7.47
2023-10-18T07:58:50.622Z,7.47
2023-10-18T07:59:50.618Z,7.51
2023-10-18T08:00:50.662Z,7.54
2023-10-18T08:01:50.712Z,7.72
2023-10-18T08:02:50.711Z,7.76
2023-10-18T08:03:52.028Z,7.93
2023-10-18T08:04:50.703Z,7.81
2023-10-18T08:05:50.730Z,8.06
2023-10-18T08:06:50.807Z,8.05
2023-10-18T08:07:50.544Z,8.30
2023-10-18T08:08:50.523Z,8.46
2023-10-18T08:09:50.590Z,8.64
2023-10-18T08:10:50.567Z,8.43
2023-10-18T08:11:50.490Z,8.58
2023-10-18T08:12:50.504Z,8.49
2023-10-18T08:13:50.470Z,8.54
2023-10-18T08:14:50.459Z,8.47
2023-10-18T08:15:50.497Z,8.52
2023-10-18T08:16:50.471Z,8.50
2023-10-18T08:17:50.442Z,8.37
2023-10-18T08:18:50.435Z,8.55
2023-10-18T08:19:50.405Z,8.40
2023-10-18T08:20:50.417Z,8.11
2023-10-18T08:21:50.397Z,8.24
2023-10-18T08:22:50.398Z,8.35
2023-10-18T08:23:50.363Z,8.46
2023-10-18T08:24:50.405Z,8.57
2023-10-18T08:25:50.346Z,8.67
2023-10-18T08:26:50.330Z,8.63
2023-10-18T08:27:50.328Z,8.71
2023-10-18T08:28:50.311Z,8.79
2023-10-18T08:29:50.300Z,8.91
2023-10-18T08:30:50.339Z,8.86
2023-10-18T08:31:50.357Z,8.73
2023-10-18T08:32:50.305Z,8.82
2023-10-18T08:33:50.302Z,8.86
2023-10-18T08:34:50.243Z,8.91
2023-10-18T08:35:50.233Z,8.94
2023-10-18T08:36:50.282Z,8.94
2023-10-18T08:37:50.216Z,9.07
2023-10-18T08:38:50.223Z,9.16
2023-10-18T08:39:50.287Z,9.34
2023-10-18T08:40:50.180Z,9.49
2023-10-18T08:41:50.171Z,9.44
2023-10-18T08:42:50.261Z,9.73
2023-10-18T08:43:50.149Z,9.81
2023-10-18T08:44:50.136Z,9.88
2023-10-18T08:45:50.226Z,9.91
2023-10-18T08:46:50.260Z,9.89
2023-10-18T08:47:50.139Z,10.13
2023-10-18T08:48:50.096Z,10.14
2023-10-18T08:49:50.088Z,10.39
2023-10-18T08:50:50.077Z,10.57
2023-10-18T08:51:50.090Z,10.56
2023-10-18T08:52:50.061Z,10.65
2023-10-18T08:53:50.041Z,10.93
2023-10-18T08:54:50.188Z,11.01
2023-10-18T08:55:50.021Z,11.16
2023-10-18T08:56:50.010Z,11.21
2023-10-18T08:57:50.004Z,11.38
2023-10-18T08:58:49.988Z,11.51
2023-10-18T08:59:49.979Z,11.77
2023-10-18T09:00:49.997Z,11.88
2023-10-18T09:01:50.115Z,11.85
2023-10-18T09:02:49.972Z,11.81
2023-10-18T09:03:50.212Z,11.85
2023-10-18T09:04:49.968Z,11.79
2023-10-18T09:05:49.913Z,11.36
2023-10-18T09:06:49.958Z,11.04
2023-10-18T09:07:49.894Z,11.41
2023-10-18T09:08:49.878Z,11.54
2023-10-18T09:09:49.909Z,11.90
2023-10-18T09:10:49.922Z,11.87
2023-10-18T09:11:49.857Z,11.87
2023-10-18T09:12:49.853Z,11.87
2023-10-18T09:13:49.929Z,11.88
2023-10-18T09:14:49.816Z,11.90
2023-10-18T09:15:59.346Z,11.84
2023-10-18T09:16:50.908Z,12.04
2023-10-18T09:17:49.810Z,12.21
2023-10-18T09:18:49.822Z,12.32
2023-10-18T09:19:49.767Z,12.85
2023-10-18T09:20:49.755Z,12.99
2023-10-18T09:21:49.825Z,13.19
2023-10-18T09:22:49.747Z,13.37
2023-10-18T09:23:49.719Z,13.45
2023-10-18T09:24:49.755Z,13.50
2023-10-18T09:25:49.705Z,13.70
2023-10-18T09:26:49.710Z,13.64
2023-10-18T09:27:49.682Z,13.65
2023-10-18T09:28:49.661Z,13.83
2023-10-18T09:29:49.657Z,13.78
2023-10-18T09:30:49.685Z,14.09
2023-10-18T09:31:49.705Z,14.24
2023-10-18T09:32:49.675Z,14.41
2023-10-18T09:33:49.611Z,14.16
2023-10-18T09:34:49.603Z,13.95
2023-10-18T09:35:49.597Z,14.17
2023-10-18T09:36:49.608Z,14.21
2023-10-18T09:37:49.572Z,14.45
2023-10-18T09:38:49.705Z,14.61
2023-10-18T09:39:49.548Z,14.20
2023-10-18T09:40:49.534Z,14.66
2023-10-18T09:41:49.526Z,15.10
2023-10-18T09:42:49.536Z,15.10
2023-10-18T09:43:49.523Z,15.26
2023-10-18T09:44:49.494Z,15.06
2023-10-18T09:45:49.481Z,14.63
2023-10-18T09:46:49.603Z,14.52
2023-10-18T09:47:49.512Z,14.61
2023-10-18T09:48:49.454Z,14.79
2023-10-18T09:49:49.438Z,14.24
2023-10-18T09:50:49.427Z,14.01
2023-10-18T09:51:49.418Z,14.29
2023-10-18T09:52:49.410Z,14.17
2023-10-18T09:53:49.391Z,14.54
2023-10-18T09:54:49.383Z,14.69
2023-10-18T09:55:49.369Z,15.04
2023-10-18T09:56:49.360Z,14.86
2023-10-18T09:57:49.356Z,15.12
2023-10-18T09:58:49.366Z,14.97
2023-10-18T09:59:49.345Z,15.14
2023-10-18T10:00:49.337Z,14.92
2023-10-18T10:01:49.399Z,15.00
2023-10-18T10:02:49.354Z,15.17
2023-10-18T10:03:49.310Z,14.97
2023-10-18T10:04:49.275Z,14.81
2023-10-18T10:05:49.262Z,15.19
2023-10-18T10:06:49.251Z,15.53
2023-10-18T10:07:49.239Z,15.52
2023-10-18T10:08:49.233Z,15.78
2023-10-18T10:09:49.231Z,15.08
2023-10-18T10:10:49.209Z,15.15
2023-10-18T10:11:49.220Z,15.39
2023-10-18T10:12:49.189Z,15.86
2023-10-18T10:13:49.180Z,16.06
2023-10-18T10:14:49.189Z,16.04
2023-10-18T10:15:49.158Z,15.81
2023-10-18T10:16:49.193Z,15.29
2023-10-18T10:17:49.159Z,14.85
2023-10-18T10:18:49.248Z,14.66
2023-10-18T10:19:49.260Z,14.77
2023-10-18T10:20:49.110Z,14.57
2023-10-18T10:21:49.092Z,13.95
2023-10-18T10:22:49.085Z,13.90
2023-10-18T10:23:49.068Z,14.08
2023-10-18T10:24:53.678Z,14.09
2023-10-18T10:26:10.996Z,13.98
2023-10-18T10:26:50.087Z,14.00
2023-10-18T10:27:49.029Z,14.08
2023-10-18T10:28:49.019Z,13.92
2023-10-18T10:29:49.002Z,13.82
2023-10-18T10:30:49.036Z,13.92
2023-10-18T10:31:49.026Z,13.83
2023-10-18T10:32:49.023Z,13.85
2023-10-18T10:33:48.963Z,13.86
2023-10-18T10:34:48.955Z,13.90
2023-10-18T10:35:48.963Z,13.85
2023-10-18T10:36:48.936Z,13.87
2023-10-18T10:37:48.973Z,13.80
2023-10-18T10:38:48.914Z,13.72
2023-10-18T10:39:48.903Z,13.61
2023-10-18T10:40:48.893Z,13.43
2023-10-18T10:41:48.886Z,13.61
2023-10-18T10:42:48.891Z,13.56
2023-10-18T10:43:48.860Z,13.27
2023-10-18T10:44:48.859Z,13.54
2023-10-18T10:45:48.909Z,13.64
2023-10-18T10:46:48.920Z,13.68
2023-10-18T10:47:48.871Z,13.70
2023-10-18T10:48:48.810Z,14.01
2023-10-18T10:49:48.858Z,14.04
2023-10-18T10:50:48.823Z,14.16
2023-10-18T10:51:48.777Z,14.31
2023-10-18T10:52:48.768Z,14.06
2023-10-18T10:53:48.756Z,14.09
2023-10-18T10:54:48.744Z,13.87
2023-10-18T10:55:48.734Z,13.95
2023-10-18T10:56:48.722Z,13.92
2023-10-18T10:57:48.718Z,14.20
2023-10-18T10:58:48.701Z,14.09
2023-10-18T10:59:48.689Z,14.21
2023-10-18T11:00:48.721Z,14.06
2023-10-18T11:01:48.752Z,14.20
2023-10-18T11:02:48.753Z,14.30
2023-10-18T11:03:48.643Z,14.41
2023-10-18T11:04:48.668Z,14.52
2023-10-18T11:05:48.640Z,14.63
2023-10-18T11:06:48.616Z,14.69
2023-10-18T11:07:48.606Z,14.92
2023-10-18T11:08:48.594Z,15.03
2023-10-18T11:09:48.579Z,14.69
2023-10-18T11:10:48.572Z,14.84
2023-10-18T11:11:48.561Z,15.11
2023-10-18T11:12:48.556Z,15.10
2023-10-18T11:13:48.541Z,15.26
2023-10-18T11:14:48.533Z,15.14
2023-10-18T11:15:48.559Z,15.21
2023-10-18T11:16:48.584Z,15.11
2023-10-18T11:17:48.529Z,15.00
2023-10-18T11:18:48.523Z,14.97
2023-10-18T11:19:48.477Z,14.92
2023-10-18T11:20:48.473Z,15.02
2023-10-18T11:21:48.455Z,14.96
2023-10-18T11:22:48.447Z,15.12
2023-10-18T11:23:48.435Z,15.17
2023-10-18T11:24:48.427Z,15.29
2023-10-18T11:25:48.414Z,15.33
2023-10-18T11:26:48.410Z,15.60
2023-10-18T11:27:48.390Z,16.14
2023-10-18T11:28:48.386Z,16.32
2023-10-18T11:29:48.375Z,16.53
2023-10-18T11:30:48.371Z,16.29
2023-10-18T11:31:48.580Z,16.50
2023-10-18T11:32:48.583Z,16.84
2023-10-18T11:33:48.582Z,17.49
2023-10-18T11:34:48.380Z,18.04
2023-10-18T11:35:48.307Z,17.86
2023-10-18T11:36:48.300Z,17.88
2023-10-18T11:37:48.291Z,18.01
2023-10-18T11:38:48.279Z,17.73
2023-10-18T11:39:48.262Z,17.90
2023-10-18T11:40:48.256Z,17.60
2023-10-18T11:41:48.240Z,17.36
2023-10-18T11:42:48.233Z,18.03
2023-10-18T11:43:48.222Z,18.30
2023-10-18T11:44:48.211Z,17.86
2023-10-18T11:45:48.219Z,18.30
2023-10-18T11:46:48.227Z,18.54
2023-10-18T11:47:48.208Z,18.62
2023-10-18T11:48:48.176Z,18.94
2023-10-18T11:49:48.162Z,19.14
2023-10-18T11:50:48.172Z,19.22
2023-10-18T11:51:48.134Z,18.93
2023-10-18T11:52:48.133Z,18.54
2023-10-18T11:53:48.114Z,18.84
2023-10-18T11:54:48.110Z,19.04
2023-10-18T11:55:48.095Z,19.27
2023-10-18T11:56:48.084Z,18.97
2023-10-18T11:57:48.074Z,18.60
2023-10-18T11:58:48.066Z,18.62
2023-10-18T11:59:48.051Z,19.09
2023-10-18T12:00:48.053Z,19.14
2023-10-18T12:01:48.102Z,18.94
2023-10-18T12:02:48.152Z,18.97
2023-10-18T12:03:48.216Z,19.01
2023-10-18T12:04:48.035Z,19.02
2023-10-18T12:05:48.058Z,18.84
2023-10-18T12:06:48.009Z,18.89
2023-10-18T12:07:47.969Z,19.15
2023-10-18T12:08:47.960Z,19.20
2023-10-18T12:09:47.957Z,19.15
2023-10-18T12:10:47.941Z,19.19
2023-10-18T12:11:47.931Z,18.86
2023-10-18T12:12:47.921Z,18.53
2023-10-18T12:13:47.929Z,19.02
2023-10-18T12:14:47.903Z,18.49
2023-10-18T12:15:47.910Z,18.49
2023-10-18T12:16:47.995Z,18.19
2023-10-18T12:17:47.891Z,17.64
2023-10-18T12:18:47.861Z,17.36
2023-10-18T12:19:47.848Z,17.18
2023-10-18T12:20:47.837Z,16.99
2023-10-18T12:21:47.824Z,17.10
2023-10-18T12:22:47.838Z,16.64
2023-10-18T12:23:47.805Z,16.65
2023-10-18T12:24:47.800Z,17.14
2023-10-18T12:25:47.898Z,17.22
2023-10-18T12:26:47.772Z,17.55
2023-10-18T12:27:47.761Z,17.65
2023-10-18T12:28:47.752Z,17.43
2023-10-18T12:29:47.745Z,17.14
2023-10-18T12:30:47.732Z,17.03
2023-10-18T12:31:47.807Z,17.07
2023-10-18T12:32:47.735Z,17.22
2023-10-18T12:33:47.698Z,17.28
2023-10-18T12:34:47.735Z,17.03
2023-10-18T12:35:47.676Z,16.95
2023-10-18T12:36:47.668Z,16.92
2023-10-18T12:37:47.656Z,16.81
2023-10-18T12:38:47.673Z,16.90
2023-10-18T12:39:47.781Z,17.05
2023-10-18T12:40:47.626Z,17.38
2023-10-18T12:41:47.615Z,17.49
2023-10-18T12:42:47.606Z,17.32
2023-10-18T12:43:47.680Z,17.18
2023-10-18T12:44:47.585Z,17.35
2023-10-18T12:45:47.595Z,17.27
2023-10-18T12:46:47.603Z,17.38
2023-10-18T12:47:47.625Z,17.57
2023-10-18T12:48:47.545Z,17.62
2023-10-18T12:49:47.533Z,17.60
2023-10-18T12:50:47.521Z,17.39
2023-10-18T12:51:47.510Z,17.53
2023-10-18T12:52:47.512Z,17.76
2023-10-18T12:53:47.568Z,17.60
2023-10-18T12:54:47.498Z,17.86
2023-10-18T12:55:47.526Z,17.93
2023-10-18T12:56:47.468Z,18.08
2023-10-18T12:57:47.443Z,17.95
2023-10-18T12:58:47.433Z,17.58
2023-10-18T12:59:47.422Z,17.35
2023-10-18T13:00:47.415Z,17.47
2023-10-18T13:01:47.607Z,17.33
2023-10-18T13:02:47.557Z,17.43
2023-10-18T13:03:47.453Z,17.36
2023-10-18T13:04:47.371Z,17.65
2023-10-18T13:05:47.362Z,17.82
2023-10-18T13:06:47.351Z,17.88
2023-10-18T13:07:48.658Z,17.72
2023-10-18T13:08:47.333Z,17.38
2023-10-18T13:09:47.316Z,17.12